createdAt,value
2018-11-25T13:41:12.213Z,39.38
2018-11-25T13:42:16.254Z,33.75
2018-11-25T13:43:11.997Z,33.75
2018-11-25T13:44:11.941Z,33.75
2018-11-25T13:45:12.198Z,33.75
2018-11-25T13:46:11.896Z,33.75
2018-11-25T13:48:11.828Z,39.38
2018-11-25T13:50:11.771Z,39.38
2018-11-25T13:52:11.969Z,28.13
2018-11-25T13:53:11.700Z,28.13
2018-11-25T13:54:11.677Z,28.13
2018-11-25T13:55:12.092Z,22.50
2018-11-25T14:00:11.995Z,22.50
2018-11-25T14:01:11.718Z,22.50
2018-11-25T14:03:11.513Z,22.50
2018-11-25T14:04:11.504Z,22.50
2018-11-25T14:05:11.464Z,22.50
2018-11-25T14:06:11.891Z,22.50
2018-11-25T14:07:11.428Z,22.50
2018-11-25T14:08:11.288Z,22.50
2018-11-25T14:09:11.266Z,28.13
2018-11-25T14:10:11.255Z,22.50
2018-11-25T14:11:11.305Z,22.50
2018-11-25T14:12:11.581Z,22.50
2018-11-25T14:13:11.246Z,22.50
2018-11-25T14:14:11.284Z,16.88
2018-11-25T14:15:11.202Z,16.88
2018-11-25T14:16:11.266Z,16.88
2018-11-25T14:17:11.096Z,11.25
2018-11-25T14:18:11.433Z,11.25
2018-11-25T14:19:11.112Z,11.25
2018-11-25T14:20:11.054Z,11.25
2018-11-25T14:21:10.978Z,11.25
2018-11-25T14:22:10.967Z,11.25
2018-11-25T14:23:10.939Z,11.25
2018-11-25T14:24:11.212Z,11.25
2018-11-25T14:25:11.207Z,11.25
2018-11-25T14:26:10.976Z,11.25
2018-11-25T14:28:10.840Z,5.63
2018-11-25T14:29:10.820Z,5.63
2018-11-25T14:30:13.427Z,5.63
2018-11-25T14:31:10.944Z,11.25
2018-11-25T14:32:10.735Z,5.63
2018-11-25T14:33:10.865Z,5.63
2018-11-25T14:34:10.790Z,5.63
2018-11-25T14:35:10.733Z,5.63
2018-11-25T14:36:11.576Z,5.63
2018-11-25T14:37:10.633Z,5.63
2018-11-25T14:38:10.666Z,5.63
2018-11-25T14:39:11.067Z,5.63
2018-11-25T14:40:10.554Z,5.63
2018-11-25T14:41:10.743Z,5.63
2018-11-25T14:42:10.601Z,5.63
2018-11-25T14:43:10.778Z,5.63
2018-11-25T14:44:10.463Z,5.63
2018-11-25T14:45:10.603Z,0.00
2018-11-25T14:46:10.643Z,5.63
2018-11-25T14:48:10.364Z,0.00
2018-11-25T14:49:10.367Z,0.00
2018-11-25T14:50:10.671Z,0.00
2018-11-25T14:51:10.596Z,0.00
2018-11-25T14:52:10.277Z,0.00
2018-11-25T14:53:10.287Z,0.00
2018-11-25T14:54:10.309Z,0.00
2018-11-25T14:55:10.239Z,0.00
2018-11-25T14:56:10.307Z,0.00
2018-11-25T14:57:10.585Z,0.00
2018-11-25T14:58:10.141Z,0.00
2018-11-25T14:59:11.020Z,0.00
2018-11-25T15:00:10.096Z,0.00
2018-11-25T15:01:10.177Z,0.00
2018-11-25T15:02:10.072Z,0.00
2018-11-25T15:03:10.346Z,0.00
2018-11-25T15:04:10.118Z,0.00
2018-11-25T15:05:09.987Z,0.00
2018-11-25T15:06:09.973Z,0.00
2018-11-25T15:07:09.947Z,0.00
2018-11-25T15:08:10.023Z,0.00
2018-11-25T15:09:10.201Z,0.00
2018-11-25T15:10:10.792Z,0.00
2018-11-25T15:11:09.931Z,0.00
2018-11-25T15:12:10.030Z,0.00
2018-11-25T15:13:09.856Z,0.00
2018-11-25T15:15:09.754Z,0.00
2018-11-25T15:16:10.040Z,0.00
2018-11-25T15:17:09.707Z,0.00
2018-11-25T15:18:09.698Z,0.00
2018-11-25T15:19:09.666Z,0.00
2018-11-25T15:20:09.648Z,0.00
2018-11-25T15:21:09.772Z,0.00
2018-11-25T15:22:10.172Z,0.00
2018-11-25T15:23:09.596Z,0.00
2018-11-25T15:25:09.702Z,0.00
2018-11-25T15:26:09.664Z,0.00
2018-11-25T15:27:09.585Z,0.00
2018-11-25T15:28:09.543Z,0.00
2018-11-25T15:29:09.824Z,0.00
2018-11-25T15:30:09.684Z,0.00
2018-11-25T15:31:09.583Z,0.00
2018-11-25T15:32:09.379Z,0.00
2018-11-25T15:33:09.455Z,0.00
2018-11-25T15:34:09.664Z,0.00
2018-11-25T15:35:09.721Z,0.00
2018-11-25T15:36:09.405Z,0.00
2018-11-25T15:37:09.410Z,0.00
2018-11-25T15:38:09.349Z,0.00
2018-11-25T15:39:09.490Z,0.00
2018-11-25T15:41:09.787Z,0.00
2018-11-25T15:42:09.251Z,0.00
2018-11-25T15:43:09.124Z,0.00
2018-11-25T15:44:09.103Z,0.00
2018-11-25T15:45:09.083Z,0.00
2018-11-25T15:46:09.979Z,0.00
2018-11-25T15:47:09.335Z,0.00
2018-11-25T15:48:09.056Z,0.00
2018-11-25T15:49:08.993Z,0.00
2018-11-25T15:50:09.389Z,0.00
2018-11-25T15:51:08.932Z,0.00
2018-11-25T15:52:09.441Z,0.00
2018-11-25T15:53:08.897Z,0.00
2018-11-25T15:54:09.237Z,0.00
2018-11-25T15:55:08.868Z,0.00
2018-11-25T15:56:09.693Z,0.00
2018-11-25T15:57:08.927Z,0.00
2018-11-25T15:58:08.979Z,0.00
2018-11-25T15:59:08.821Z,0.00
2018-11-25T16:00:09.110Z,0.00
2018-11-25T16:01:08.713Z,0.00
2018-11-25T16:25:08.531Z,0.00
2018-11-25T16:26:08.217Z,0.00
2018-11-25T16:27:08.188Z,0.00
2018-11-25T16:28:08.120Z,0.00
2018-11-25T16:29:08.083Z,0.00
2018-11-25T16:30:08.139Z,0.00
2018-11-25T16:32:08.440Z,0.00
2018-11-25T16:34:09.196Z,0.00
2018-11-25T16:35:09.545Z,0.00
2018-11-25T16:36:08.305Z,0.00
2018-11-25T16:37:08.966Z,0.00
2018-11-25T16:39:08.273Z,0.00
2018-11-25T16:40:07.831Z,0.00
2018-11-25T16:41:07.825Z,0.00
2018-11-25T16:43:08.023Z,0.00
2018-11-25T16:44:07.797Z,0.00
2018-11-25T16:45:07.852Z,0.00
2018-11-25T16:46:07.748Z,0.00
2018-11-25T16:47:07.688Z,0.00
2018-11-25T16:48:07.686Z,0.00
2018-11-25T16:49:08.647Z,0.00
2018-11-25T16:50:07.677Z,0.00
2018-11-25T16:51:07.640Z,0.00
2018-11-25T16:52:07.570Z,0.00
2018-11-25T17:25:07.303Z,0.00
2018-11-25T17:29:06.867Z,0.00
2018-11-25T17:32:07.178Z,0.00
2018-11-25T17:33:06.760Z,0.00
2018-11-25T17:35:06.841Z,0.00
2018-11-25T17:37:06.590Z,0.00
2018-11-25T17:38:06.595Z,0.00
2018-11-25T17:39:06.864Z,0.00
2018-11-25T17:40:06.485Z,0.00
2018-11-25T17:41:06.487Z,0.00
2018-11-25T17:42:06.466Z,0.00
2018-11-25T17:43:06.444Z,0.00
2018-11-25T17:44:06.385Z,0.00
2018-11-25T17:45:06.400Z,0.00
2018-11-25T17:46:06.679Z,0.00
2018-11-25T17:48:06.315Z,0.00
2018-11-25T17:49:06.285Z,0.00
2018-11-25T17:50:07.860Z,0.00
2018-11-25T17:51:06.239Z,0.00
2018-11-25T17:52:06.208Z,0.00
2018-11-25T17:53:06.511Z,0.00
2018-11-25T17:54:06.279Z,0.00
2018-11-25T17:56:06.122Z,0.00
2018-11-25T17:57:06.113Z,0.00
2018-11-25T17:58:06.085Z,0.00
2018-11-25T18:23:06.178Z,0.00
2018-11-25T18:24:05.689Z,0.00
2018-11-25T18:27:05.428Z,0.00
2018-11-25T18:28:05.460Z,0.00
2018-11-25T18:29:05.710Z,0.00
2018-11-25T18:30:05.372Z,0.00
2018-11-25T18:31:05.593Z,0.00
2018-11-25T18:32:05.341Z,0.00
2018-11-25T18:34:05.264Z,0.00
2018-11-25T18:35:05.238Z,0.00
2018-11-25T18:42:05.433Z,0.00
2018-11-25T18:43:05.372Z,0.00
2018-11-25T18:56:05.117Z,0.00
2018-11-25T18:57:04.749Z,0.00
2018-11-25T18:58:04.719Z,0.00
2018-11-25T18:59:04.692Z,0.00
2018-11-25T19:00:04.763Z,0.00
2018-11-25T19:01:04.641Z,0.00
2018-11-25T19:07:04.814Z,0.00
2018-11-25T19:08:04.538Z,0.00
2018-11-25T19:09:04.521Z,0.00
2018-11-25T19:10:04.440Z,0.00
2018-11-25T19:26:04.150Z,0.00
2018-11-25T19:28:04.218Z,0.00
2018-11-25T19:30:04.702Z,0.00
2018-11-25T19:32:04.241Z,0.00
2018-11-25T19:33:03.951Z,0.00
2018-11-25T19:34:03.933Z,0.00
2018-11-25T19:35:04.656Z,0.00
2018-11-25T19:37:03.936Z,0.00
2018-11-25T19:39:03.989Z,0.00
2018-11-25T19:40:03.989Z,0.00
2018-11-25T19:41:03.903Z,0.00
2018-11-25T19:42:03.716Z,0.00
2018-11-25T19:43:03.686Z,0.00
2018-11-25T19:44:04.174Z,0.00
2018-11-25T19:45:03.917Z,0.00
2018-11-25T19:46:03.886Z,0.00
2018-11-25T19:47:03.599Z,0.00
2018-11-25T19:48:03.792Z,0.00
2018-11-25T19:49:03.552Z,0.00
2018-11-25T19:50:03.917Z,0.00
2018-11-25T19:51:03.620Z,0.00
2018-11-25T19:52:03.843Z,0.00
2018-11-25T19:53:03.748Z,0.00
2018-11-25T19:54:03.448Z,0.00
2018-11-25T19:55:03.430Z,0.00
2018-11-25T19:56:04.280Z,0.00
2018-11-25T19:57:03.372Z,0.00
2018-11-25T19:58:03.344Z,0.00
2018-11-25T19:59:04.185Z,0.00
2018-11-25T20:00:03.320Z,0.00
2018-11-25T20:01:03.687Z,0.00
2018-11-25T20:02:03.574Z,0.00
2018-11-25T20:03:03.244Z,0.00
2018-11-25T20:04:03.238Z,0.00
2018-11-25T20:05:03.186Z,0.00
2018-11-25T20:06:03.231Z,0.00
2018-11-25T20:07:03.140Z,0.00
2018-11-25T20:08:03.438Z,0.00
2018-11-25T20:09:03.116Z,0.00
2018-11-25T20:10:03.075Z,0.00
2018-11-25T20:11:03.058Z,0.00
2018-11-25T20:12:03.045Z,0.00
2018-11-25T20:13:03.008Z,0.00
2018-11-25T20:14:03.000Z,0.00
2018-11-25T20:15:03.312Z,0.00
2018-11-25T20:16:02.937Z,0.00
2018-11-25T20:17:02.915Z,0.00
2018-11-25T20:18:03.273Z,0.00
2018-11-25T20:19:02.874Z,0.00
2018-11-25T20:20:03.113Z,0.00
2018-11-25T20:21:02.879Z,0.00
2018-11-25T20:22:03.100Z,0.00
2018-11-25T20:23:02.794Z,0.00
2018-11-25T20:24:02.758Z,0.00
2018-11-25T20:25:02.751Z,0.00
2018-11-25T20:26:02.713Z,0.00
2018-11-25T20:27:03.019Z,0.00
2018-11-25T20:28:02.980Z,0.00
2018-11-25T20:29:02.862Z,0.00
2018-11-25T20:30:02.637Z,0.00
2018-11-25T20:31:03.057Z,0.00
2018-11-25T20:32:02.647Z,0.00
2018-11-25T20:33:02.652Z,0.00
2018-11-25T20:34:03.005Z,0.00
2018-11-25T20:35:02.504Z,0.00
2018-11-25T20:36:02.499Z,0.00
2018-11-25T20:37:02.499Z,0.00
2018-11-25T20:38:02.477Z,0.00
2018-11-25T20:39:02.525Z,0.00
2018-11-25T20:40:02.752Z,0.00
2018-11-25T20:41:02.379Z,0.00
2018-11-25T20:42:02.457Z,0.00
2018-11-25T20:43:02.333Z,0.00
2018-11-25T20:44:03.260Z,0.00
2018-11-25T20:45:03.070Z,0.00
2018-11-25T20:46:02.301Z,0.00
2018-11-25T20:47:02.585Z,0.00
2018-11-25T20:48:02.204Z,0.00
2018-11-25T20:49:02.178Z,0.00
2018-11-25T20:50:02.210Z,0.00
2018-11-25T20:51:02.305Z,0.00
2018-11-25T20:53:02.568Z,0.00
2018-11-25T20:54:02.069Z,0.00
2018-11-25T20:56:02.095Z,0.00
2018-11-25T20:57:02.017Z,0.00
2018-11-25T20:58:02.117Z,0.00
2018-11-25T20:59:02.258Z,0.00
2018-11-25T21:00:02.240Z,0.00
2018-11-25T21:01:02.126Z,0.00
2018-11-25T21:03:02.165Z,0.00
2018-11-25T21:05:02.135Z,0.00
2018-11-25T21:06:01.983Z,0.00
2018-11-25T21:07:02.021Z,0.00
2018-11-25T21:08:01.762Z,0.00
2018-11-25T21:09:01.928Z,0.00
2018-11-25T21:10:01.737Z,0.00
2018-11-25T21:11:01.965Z,0.00
2018-11-25T21:12:01.704Z,0.00
2018-11-25T21:15:01.957Z,0.00
2018-11-25T21:16:01.617Z,0.00
2018-11-25T21:17:01.841Z,0.00
2018-11-25T21:18:01.612Z,0.00
2018-11-25T21:19:01.551Z,0.00
2018-11-25T21:20:01.512Z,0.00
2018-11-25T21:21:01.496Z,0.00
2018-11-25T21:23:01.701Z,0.00
2018-11-25T21:24:01.445Z,0.00
2018-11-25T21:25:01.490Z,0.00
2018-11-25T21:26:01.337Z,0.00
2018-11-25T21:27:01.373Z,0.00
2018-11-25T21:28:01.602Z,0.00
2018-11-25T21:29:01.565Z,0.00
2018-11-25T21:30:01.356Z,0.00
2018-11-25T21:31:01.424Z,0.00
2018-11-25T21:32:01.226Z,0.00
2018-11-25T21:34:01.144Z,0.00
2018-11-25T21:35:01.419Z,0.00
2018-11-25T21:36:01.090Z,0.00
2018-11-25T21:37:01.154Z,0.00
2018-11-25T21:38:01.044Z,0.00
2018-11-25T21:39:01.252Z,0.00
2018-11-25T21:40:01.120Z,0.00
2018-11-25T21:41:01.428Z,0.00
2018-11-25T21:42:01.439Z,0.00
2018-11-25T21:44:00.942Z,0.00
2018-11-25T21:45:00.877Z,0.00
2018-11-25T21:46:00.893Z,0.00
2018-11-25T21:47:00.941Z,0.00
2018-11-25T21:48:01.119Z,0.00
2018-11-25T21:49:01.094Z,0.00
2018-11-25T21:50:00.769Z,0.00
2018-11-25T21:51:01.054Z,0.00
2018-11-25T21:52:02.445Z,0.00
2018-11-25T21:53:00.827Z,0.00
2018-11-25T21:54:00.802Z,0.00
2018-11-25T21:55:01.096Z,0.00
2018-11-25T21:56:00.750Z,0.00
2018-11-25T21:57:00.797Z,0.00
2018-11-25T21:58:00.762Z,0.00
2018-11-25T21:59:00.557Z,0.00
2018-11-25T22:00:00.705Z,0.00
2018-11-25T22:01:00.506Z,0.00
2018-11-25T22:02:00.796Z,0.00
2018-11-25T22:03:00.535Z,0.00
2018-11-25T22:04:00.439Z,0.00
2018-11-25T22:05:00.485Z,0.00
2018-11-25T22:06:00.466Z,0.00
2018-11-25T22:08:00.835Z,0.00
2018-11-25T22:09:00.375Z,0.00
2018-11-25T22:10:00.358Z,0.00
2018-11-25T22:11:00.429Z,0.00
2018-11-25T22:12:00.253Z,0.00
2018-11-25T22:13:00.311Z,0.00
2018-11-25T22:14:00.597Z,0.00
2018-11-25T22:15:00.327Z,0.00
2018-11-25T22:16:00.481Z,0.00
2018-11-25T22:17:00.378Z,0.00
2018-11-25T22:18:00.950Z,0.00
2018-11-25T22:19:00.160Z,0.00
2018-11-25T22:20:00.583Z,0.00
2018-11-25T22:22:00.258Z,0.00
2018-11-25T22:23:00.885Z,0.00
2018-11-25T22:23:59.986Z,0.00
2018-11-25T22:24:59.960Z,0.00
2018-11-25T22:26:00.362Z,0.00
2018-11-25T22:26:59.911Z,0.00
2018-11-25T22:27:59.900Z,0.00
2018-11-25T22:29:00.079Z,0.00
2018-11-25T22:29:59.876Z,0.00
2018-11-25T22:30:59.952Z,0.00
2018-11-25T22:32:00.168Z,0.00
2018-11-25T22:33:59.795Z,0.00
2018-11-25T22:34:59.844Z,0.00
2018-11-25T22:35:59.777Z,0.00
2018-11-25T22:36:59.772Z,0.00
2018-11-25T22:38:01.357Z,0.00
2018-11-25T22:39:59.733Z,0.00
2018-11-25T22:41:00.585Z,0.00
2018-11-25T22:42:59.653Z,0.00
2018-11-25T22:43:59.644Z,0.00
2018-11-25T22:44:59.895Z,0.00
2018-11-25T22:46:59.447Z,0.00
2018-11-25T22:49:00.223Z,0.00
2018-11-25T22:50:00.220Z,0.00
2018-11-25T22:50:59.760Z,0.00
2018-11-25T22:51:59.369Z,0.00
2018-11-25T22:52:59.468Z,0.00
2018-11-25T22:53:59.634Z,0.00
2018-11-25T22:54:59.285Z,0.00
2018-11-25T22:55:59.395Z,0.00
2018-11-25T22:56:59.625Z,0.00
2018-11-25T22:57:59.362Z,0.00
2018-11-25T22:58:59.765Z,0.00
2018-11-25T22:59:59.290Z,0.00
2018-11-25T23:00:59.238Z,0.00
2018-11-25T23:02:59.431Z,0.00
2018-11-25T23:03:59.121Z,0.00
2018-11-25T23:04:59.237Z,0.00
2018-11-25T23:05:59.354Z,0.00
2018-11-25T23:06:59.072Z,0.00
2018-11-25T23:07:59.072Z,0.00
2018-11-25T23:08:59.076Z,0.00
2018-11-25T23:09:59.285Z,0.00
2018-11-25T23:10:58.989Z,0.00
2018-11-25T23:11:58.919Z,0.00
2018-11-25T23:13:58.938Z,0.00
2018-11-25T23:14:58.845Z,0.00
2018-11-25T23:15:58.916Z,0.00
2018-11-25T23:16:59.221Z,0.00
2018-11-25T23:17:58.999Z,0.00
2018-11-25T23:18:59.082Z,0.00
2018-11-25T23:19:59.050Z,0.00
2018-11-25T23:20:58.696Z,0.00
2018-11-25T23:21:59.250Z,0.00
2018-11-25T23:22:58.740Z,0.00
2018-11-25T23:23:58.930Z,0.00
2018-11-25T23:24:58.663Z,0.00
2018-11-25T23:25:58.677Z,0.00
2018-11-25T23:26:58.565Z,0.00
2018-11-25T23:27:58.590Z,0.00
2018-11-25T23:28:58.570Z,0.00
2018-11-25T23:29:58.547Z,0.00
2018-11-25T23:30:58.838Z,0.00
2018-11-25T23:31:58.448Z,0.00
2018-11-25T23:32:58.407Z,0.00
2018-11-25T23:33:58.465Z,0.00
2018-11-25T23:34:58.526Z,0.00
2018-11-25T23:35:58.396Z,0.00
2018-11-25T23:36:58.308Z,0.00
2018-11-25T23:37:58.600Z,0.00
2018-11-25T23:38:59.411Z,0.00
2018-11-25T23:39:58.711Z,0.00
2018-11-25T23:40:58.342Z,0.00
2018-11-25T23:41:58.335Z,0.00
2018-11-25T23:42:58.179Z,0.00
2018-11-25T23:43:58.426Z,0.00
2018-11-25T23:44:58.135Z,0.00
2018-11-25T23:45:58.100Z,0.00
2018-11-25T23:46:58.107Z,0.00
2018-11-25T23:47:58.083Z,0.00
2018-11-25T23:48:58.120Z,0.00
2018-11-25T23:49:58.439Z,0.00
2018-11-25T23:50:57.996Z,0.00
2018-11-25T23:51:58.045Z,0.00
2018-11-25T23:52:58.043Z,0.00
2018-11-25T23:53:57.881Z,0.00
